sensor_id;sensor_type;location;lat;lon;timestamp;pressure;altitude;pressure_sealevel;temperature;humidity
40920;BME280;26652;50.280;19.026;2023-07-13T00:01:51;97961.66;;;22.00;100.00
40920;BME280;26652;50.280;19.026;2023-07-13T00:03:52;97966.31;;;21.98;100.00
40920;BME280;26652;50.280;19.026;2023-07-13T00:06:00;97951.31;;;21.84;100.00
40920;BME280;26652;50.280;19.026;2023-07-13T00:08:01;97969.75;;;21.83;100.00
40920;BME280;26652;50.280;19.026;2023-07-13T00:10:02;97975.97;;;21.82;100.00
40920;BME280;26652;50.280;19.026;2023-07-13T00:12:04;97969.47;;;21.84;100.00
40920;BME280;26652;50.280;19.026;2023-07-13T00:14:07;97973.59;;;21.91;100.00
40920;BME280;26652;50.280;19.026;2023-07-13T00:16:10;98009.34;;;21.94;100.00
40920;BME280;26652;50.280;19.026;2023-07-13T00:18:10;98006.78;;;21.88;100.00
40920;BME280;26652;50.280;19.026;2023-07-13T00:20:11;98000.06;;;21.72;100.00
40920;BME280;26652;50.280;19.026;2023-07-13T00:22:12;97998.78;;;21.49;100.00
40920;BME280;26652;50.280;19.026;2023-07-13T00:24:16;97999.81;;;21.53;100.00
40920;BME280;26652;50.280;19.026;2023-07-13T00:26:18;97995.16;;;21.71;100.00
40920;BME280;26652;50.280;19.026;2023-07-13T00:28:19;98014.28;;;21.90;100.00
40920;BME280;26652;50.280;19.026;2023-07-13T00:30:20;98001.09;;;21.71;100.00
40920;BME280;26652;50.280;19.026;2023-07-13T00:32:21;97989.97;;;21.66;100.00
40920;BME280;26652;50.280;19.026;2023-07-13T00:34:21;97984.53;;;21.52;100.00
40920;BME280;26652;50.280;19.026;2023-07-13T00:36:22;97999.56;;;21.75;100.00
40920;BME280;26652;50.280;19.026;2023-07-13T00:38:23;97989.19;;;21.75;100.00
40920;BME280;26652;50.280;19.026;2023-07-13T00:40:24;97994.63;;;21.79;100.00
40920;BME280;26652;50.280;19.026;2023-07-13T00:42:25;97975.22;;;21.56;100.00
40920;BME280;26652;50.280;19.026;2023-07-13T00:44:26;97977.78;;;21.56;100.00
40920;BME280;26652;50.280;19.026;2023-07-13T00:46:29;97982.72;;;21.73;100.00
40920;BME280;26652;50.280;19.026;2023-07-13T00:48:33;97960.19;;;21.63;100.00
40920;BME280;26652;50.280;19.026;2023-07-13T00:50:35;97970.53;;;21.68;100.00
40920;BME280;26652;50.280;19.026;2023-07-13T00:52:38;97957.84;;;21.62;100.00
40920;BME280;26652;50.280;19.026;2023-07-13T00:54:42;97952.16;;;21.60;100.00
40920;BME280;26652;50.280;19.026;2023-07-13T00:56:45;97958.88;;;21.56;100.00
40920;BME280;26652;50.280;19.026;2023-07-13T00:58:47;97962.50;;;21.54;100.00
40920;BME280;26652;50.280;19.026;2023-07-13T01:00:48;97943.09;;;21.52;100.00
40920;BME280;26652;50.280;19.026;2023-07-13T01:02:49;97948.53;;;21.56;100.00
40920;BME280;26652;50.280;19.026;2023-07-13T01:04:50;97946.97;;;21.54;100.00
40920;BME280;26652;50.280;19.026;2023-07-13T01:06:51;97950.34;;;21.55;100.00
40920;BME280;26652;50.280;19.026;2023-07-13T01:08:52;97953.19;;;21.48;100.00
40920;BME280;26652;50.280;19.026;2023-07-13T01:10:56;97967.44;;;21.56;100.00
40920;BME280;26652;50.280;19.026;2023-07-13T01:12:57;97933.00;;;21.50;100.00
40920;BME280;26652;50.280;19.026;2023-07-13T01:15:01;97930.13;;;21.57;100.00
40920;BME280;26652;50.280;19.026;2023-07-13T01:17:03;97940.25;;;21.53;100.00
40920;BME280;26652;50.280;19.026;2023-07-13T01:19:13;97922.63;;;21.35;100.00
40920;BME280;26652;50.280;19.026;2023-07-13T01:21:16;97921.59;;;21.26;100.00
40920;BME280;26652;50.280;19.026;2023-07-13T01:23:19;97936.09;;;21.37;100.00
40920;BME280;26652;50.280;19.026;2023-07-13T01:25:20;97942.31;;;21.57;100.00
40920;BME280;26652;50.280;19.026;2023-07-13T01:27:23;97922.63;;;21.50;100.00
40920;BME280;26652;50.280;19.026;2023-07-13T01:29:25;97969.75;;;21.73;100.00
40920;BME280;26652;50.280;19.026;2023-07-13T01:31:26;97958.13;;;21.55;100.00
40920;BME280;26652;50.280;19.026;2023-07-13T01:33:26;97950.09;;;21.41;100.00
40920;BME280;26652;50.280;19.026;2023-07-13T01:35:27;97976.22;;;21.35;100.00
40920;BME280;26652;50.280;19.026;2023-07-13T01:37:28;97967.38;;;21.15;100.00
40920;BME280;26652;50.280;19.026;2023-07-13T01:39:33;97970.47;;;21.17;100.00
40920;BME280;26652;50.280;19.026;2023-07-13T01:41:34;97965.31;;;21.17;100.00
40920;BME280;26652;50.280;19.026;2023-07-13T01:43:35;97956.25;;;21.20;100.00
40920;BME280;26652;50.280;19.026;2023-07-13T01:45:36;97943.34;;;21.25;100.00
40920;BME280;26652;50.280;19.026;2023-07-13T01:47:37;97940.19;;;21.18;100.00
40920;BME280;26652;50.280;19.026;2023-07-13T01:49:37;97941.28;;;21.27;100.00
40920;BME280;26652;50.280;19.026;2023-07-13T01:51:38;97948.53;;;21.30;100.00
40920;BME280;26652;50.280;19.026;2023-07-13T01:53:39;97955.50;;;21.35;100.00
40920;BME280;26652;50.280;19.026;2023-07-13T01:55:41;97956.56;;;21.44;100.00
40920;BME280;26652;50.280;19.026;2023-07-13T01:57:42;97959.91;;;21.34;100.00
40920;BME280;26652;50.280;19.026;2023-07-13T01:59:43;97937.66;;;21.38;100.00
40920;BME280;26652;50.280;19.026;2023-07-13T02:01:44;97936.63;;;21.39;100.00
40920;BME280;26652;50.280;19.026;2023-07-13T02:03:45;97934.03;;;21.49;100.00
40920;BME280;26652;50.280;19.026;2023-07-13T02:05:46;97929.63;;;21.30;100.00
40920;BME280;26652;50.280;19.026;2023-07-13T02:07:48;97953.41;;;21.16;100.00
40920;BME280;26652;50.280;19.026;2023-07-13T02:09:49;97930.09;;;21.01;100.00
40920;BME280;26652;50.280;19.026;2023-07-13T02:11:50;97925.94;;;20.90;100.00
40920;BME280;26652;50.280;19.026;2023-07-13T02:13:51;97913.00;;;20.95;100.00
40920;BME280;26652;50.280;19.026;2023-07-13T02:15:52;97906.25;;;20.94;100.00
40920;BME280;26652;50.280;19.026;2023-07-13T02:17:53;97911.44;;;20.99;100.00
40920;BME280;26652;50.280;19.026;2023-07-13T02:19:54;97916.38;;;21.11;100.00
40920;BME280;26652;50.280;19.026;2023-07-13T02:21:55;97891.28;;;21.06;100.00
40920;BME280;26652;50.280;19.026;2023-07-13T02:23:56;97889.72;;;20.95;100.00
40920;BME280;26652;50.280;19.026;2023-07-13T02:26:00;97889.44;;;20.86;100.00
40920;BME280;26652;50.280;19.026;2023-07-13T02:28:03;97909.91;;;21.08;100.00
40920;BME280;26652;50.280;19.026;2023-07-13T02:30:04;97890.75;;;20.99;100.00
40920;BME280;26652;50.280;19.026;2023-07-13T02:32:05;97893.31;;;20.94;100.00
40920;BME280;26652;50.280;19.026;2023-07-13T02:34:06;97873.66;;;20.88;100.00
40920;BME280;26652;50.280;19.026;2023-07-13T02:36:08;97871.84;;;20.88;100.00
40920;BME280;26652;50.280;19.026;2023-07-13T02:38:09;97856.31;;;20.83;100.00
40920;BME280;26652;50.280;19.026;2023-07-13T02:40:10;97862.00;;;20.80;100.00
40920;BME280;26652;50.280;19.026;2023-07-13T02:42:11;97864.59;;;20.80;100.00
40920;BME280;26652;50.280;19.026;2023-07-13T02:44:15;97876.50;;;20.97;100.00
40920;BME280;26652;50.280;19.026;2023-07-13T02:46:15;97865.63;;;20.84;100.00
40920;BME280;26652;50.280;19.026;2023-07-13T02:48:17;97871.34;;;20.92;100.00
40920;BME280;26652;50.280;19.026;2023-07-13T02:50:17;97865.41;;;20.76;100.00
40920;BME280;26652;50.280;19.026;2023-07-13T02:52:18;97876.50;;;20.71;100.00
40920;BME280;26652;50.280;19.026;2023-07-13T02:54:19;97869.78;;;20.85;100.00
40920;BME280;26652;50.280;19.026;2023-07-13T02:56:25;97869.00;;;20.85;100.00
40920;BME280;26652;50.280;19.026;2023-07-13T02:58:26;97858.16;;;20.73;100.00
40920;BME280;26652;50.280;19.026;2023-07-13T03:00:27;97860.97;;;20.81;100.00
40920;BME280;26652;50.280;19.026;2023-07-13T03:02:28;97882.47;;;20.92;100.00
40920;BME280;26652;50.280;19.026;2023-07-13T03:04:29;97884.00;;;20.93;100.00
40920;BME280;26652;50.280;19.026;2023-07-13T03:06:31;97883.25;;;20.93;100.00
40920;BME280;26652;50.280;19.026;2023-07-13T03:08:32;97884.53;;;20.85;100.00
40920;BME280;26652;50.280;19.026;2023-07-13T03:10:33;97898.25;;;20.90;100.00
40920;BME280;26652;50.280;19.026;2023-07-13T03:12:34;97904.72;;;20.78;100.00
40920;BME280;26652;50.280;19.026;2023-07-13T03:14:35;97919.69;;;20.81;100.00
40920;BME280;26652;50.280;19.026;2023-07-13T03:16:36;97930.34;;;20.79;100.00
40920;BME280;26652;50.280;19.026;2023-07-13T03:18:37;97935.75;;;20.73;100.00
40920;BME280;26652;50.280;19.026;2023-07-13T03:20:38;97959.81;;;20.88;100.00
40920;BME280;26652;50.280;19.026;2023-07-13T03:22:38;97947.13;;;20.72;100.00
40920;BME280;26652;50.280;19.026;2023-07-13T03:24:39;97960.06;;;20.77;100.00
40920;BME280;26652;50.280;19.026;2023-07-13T03:26:41;97968.34;;;20.79;100.00
40920;BME280;26652;50.280;19.026;2023-07-13T03:28:43;97993.75;;;21.02;100.00
40920;BME280;26652;50.280;19.026;2023-07-13T03:30:43;97978.72;;;20.99;100.00
40920;BME280;26652;50.280;19.026;2023-07-13T03:32:45;97985.22;;;21.07;100.00
40920;BME280;26652;50.280;19.026;2023-07-13T03:34:45;97979.25;;;21.06;100.00
40920;BME280;26652;50.280;19.026;2023-07-13T03:36:46;97977.72;;;21.10;100.00
40920;BME280;26652;50.280;19.026;2023-07-13T03:38:52;97967.38;;;21.10;100.00
40920;BME280;26652;50.280;19.026;2023-07-13T03:40:54;97960.91;;;21.13;100.00
40920;BME280;26652;50.280;19.026;2023-07-13T03:42:54;97962.22;;;21.20;100.00
40920;BME280;26652;50.280;19.026;2023-07-13T03:44:55;97951.84;;;21.15;100.00
40920;BME280;26652;50.280;19.026;2023-07-13T03:46:56;97967.63;;;21.19;100.00
40920;BME280;26652;50.280;19.026;2023-07-13T03:48:57;97952.63;;;21.11;100.00
40920;BME280;26652;50.280;19.026;2023-07-13T03:50:58;97958.31;;;21.13;100.00
40920;BME280;26652;50.280;19.026;2023-07-13T03:52:59;97971.50;;;21.06;100.00
40920;BME280;26652;50.280;19.026;2023-07-13T03:55:00;97982.19;;;21.30;100.00
40920;BME280;26652;50.280;19.026;2023-07-13T03:57:01;97985.56;;;21.41;100.00
40920;BME280;26652;50.280;19.026;2023-07-13T03:59:02;97976.25;;;21.40;100.00
40920;BME280;26652;50.280;19.026;2023-07-13T04:01:05;97985.31;;;21.42;100.00
40920;BME280;26652;50.280;19.026;2023-07-13T04:03:06;97995.41;;;21.49;100.00
40920;BME280;26652;50.280;19.026;2023-07-13T04:05:07;97990.22;;;21.44;100.00
40920;BME280;26652;50.280;19.026;2023-07-13T04:07:07;97974.41;;;21.30;100.00
40920;BME280;26652;50.280;19.026;2023-07-13T04:09:11;97976.75;;;21.32;100.00
40920;BME280;26652;50.280;19.026;2023-07-13T04:11:11;97986.59;;;21.35;100.00
40920;BME280;26652;50.280;19.026;2023-07-13T04:13:12;97997.19;;;21.28;100.00
40920;BME280;26652;50.280;19.026;2023-07-13T04:15:13;97995.38;;;21.24;100.00
40920;BME280;26652;50.280;19.026;2023-07-13T04:17:14;97990.72;;;21.26;100.00
40920;BME280;26652;50.280;19.026;2023-07-13T04:19:14;98003.41;;;21.27;100.00
40920;BME280;26652;50.280;19.026;2023-07-13T04:21:16;97990.94;;;21.14;100.00
40920;BME280;26652;50.280;19.026;2023-07-13T04:23:17;97996.63;;;21.16;100.00
40920;BME280;26652;50.280;19.026;2023-07-13T04:25:20;97991.78;;;21.40;100.00
40920;BME280;26652;50.280;19.026;2023-07-13T04:27:20;97991.25;;;21.53;100.00
40920;BME280;26652;50.280;19.026;2023-07-13T04:29:21;97998.78;;;21.60;100.00
40920;BME280;26652;50.280;19.026;2023-07-13T04:31:22;97996.97;;;21.50;100.00
40920;BME280;26652;50.280;19.026;2023-07-13T04:33:23;97991.53;;;21.51;100.00
40920;BME280;26652;50.280;19.026;2023-07-13T04:35:24;97992.31;;;21.52;100.00
40920;BME280;26652;50.280;19.026;2023-07-13T04:37:26;97975.97;;;21.51;100.00
40920;BME280;26652;50.280;19.026;2023-07-13T04:39:26;97974.16;;;21.67;100.00
40920;BME280;26652;50.280;19.026;2023-07-13T04:41:27;97969.25;;;21.76;100.00
40920;BME280;26652;50.280;19.026;2023-07-13T04:43:29;97978.81;;;21.80;100.00
40920;BME280;26652;50.280;19.026;2023-07-13T04:45:30;97973.13;;;21.78;100.00
40920;BME280;26652;50.280;19.026;2023-07-13T04:47:32;97976.50;;;21.74;100.00
40920;BME280;26652;50.280;19.026;2023-07-13T04:49:33;97960.94;;;21.69;100.00
40920;BME280;26652;50.280;19.026;2023-07-13T04:51:33;97963.78;;;21.82;100.00
40920;BME280;26652;50.280;19.026;2023-07-13T04:53:34;97960.91;;;21.89;100.00
40920;BME280;26652;50.280;19.026;2023-07-13T04:55:35;97957.28;;;22.05;100.00
40920;BME280;26652;50.280;19.026;2023-07-13T04:57:36;97954.16;;;22.08;100.00
40920;BME280;26652;50.280;19.026;2023-07-13T04:59:36;97983.91;;;22.36;100.00
40920;BME280;26652;50.280;19.026;2023-07-13T05:01:37;97976.41;;;22.30;100.00
40920;BME280;26652;50.280;19.026;2023-07-13T05:03:38;97981.25;;;22.46;98.23
40920;BME280;26652;50.280;19.026;2023-07-13T05:05:38;97943.94;;;22.37;98.87
40920;BME280;26652;50.280;19.026;2023-07-13T05:07:39;97981.31;;;22.91;98.48
40920;BME280;26652;50.280;19.026;2023-07-13T05:09:40;97955.06;;;22.97;96.76
40920;BME280;26652;50.280;19.026;2023-07-13T05:11:41;97951.56;;;23.17;95.76
40920;BME280;26652;50.280;19.026;2023-07-13T05:13:41;97958.97;;;23.34;94.20
40920;BME280;26652;50.280;19.026;2023-07-13T05:15:42;97976.84;;;23.40;90.77
40920;BME280;26652;50.280;19.026;2023-07-13T05:17:43;97965.97;;;23.38;91.37
40920;BME280;26652;50.280;19.026;2023-07-13T05:19:44;97974.50;;;23.44;92.59
40920;BME280;26652;50.280;19.026;2023-07-13T05:21:44;97973.22;;;23.41;92.89
40920;BME280;26652;50.280;19.026;2023-07-13T05:23:47;97972.47;;;23.36;93.93
40920;BME280;26652;50.280;19.026;2023-07-13T05:25:47;97969.13;;;23.30;93.26
40920;BME280;26652;50.280;19.026;2023-07-13T05:27:48;97968.44;;;23.20;93.81
40920;BME280;26652;50.280;19.026;2023-07-13T05:29:49;97968.44;;;23.20;92.56
40920;BME280;26652;50.280;19.026;2023-07-13T05:31:50;97973.59;;;23.25;92.26
40920;BME280;26652;50.280;19.026;2023-07-13T05:33:51;97975.41;;;23.24;91.57
40920;BME280;26652;50.280;19.026;2023-07-13T05:35:52;97976.97;;;23.25;92.59
40920;BME280;26652;50.280;19.026;2023-07-13T05:37:52;97976.69;;;23.27;93.23
40920;BME280;26652;50.280;19.026;2023-07-13T05:39:53;97969.22;;;23.20;94.90
40920;BME280;26652;50.280;19.026;2023-07-13T05:41:54;97968.31;;;23.35;93.67
40920;BME280;26652;50.280;19.026;2023-07-13T05:43:55;97970.38;;;23.38;93.87
40920;BME280;26652;50.280;19.026;2023-07-13T05:45:56;97961.81;;;23.37;93.73
40920;BME280;26652;50.280;19.026;2023-07-13T05:47:57;97965.09;;;23.48;92.76
40920;BME280;26652;50.280;19.026;2023-07-13T05:49:57;97971.03;;;23.59;90.29
40920;BME280;26652;50.280;19.026;2023-07-13T05:51:58;97961.91;;;23.61;89.58
40920;BME280;26652;50.280;19.026;2023-07-13T05:53:59;97946.09;;;23.53;91.31
40920;BME280;26652;50.280;19.026;2023-07-13T05:56:00;97943.00;;;23.56;91.35
40920;BME280;26652;50.280;19.026;2023-07-13T05:58:01;97949.38;;;23.68;92.02
40920;BME280;26652;50.280;19.026;2023-07-13T06:00:02;97957.84;;;23.79;91.47
40920;BME280;26652;50.280;19.026;2023-07-13T06:02:03;97937.34;;;23.77;90.84
40920;BME280;26652;50.280;19.026;2023-07-13T06:04:04;97965.56;;;23.89;90.08
40920;BME280;26652;50.280;19.026;2023-07-13T06:06:06;97954.72;;;23.82;88.64
40920;BME280;26652;50.280;19.026;2023-07-13T06:08:08;97956.75;;;23.85;89.09
40920;BME280;26652;50.280;19.026;2023-07-13T06:10:09;97968.34;;;23.93;87.84
40920;BME280;26652;50.280;19.026;2023-07-13T06:12:10;97955.72;;;23.86;88.06
40920;BME280;26652;50.280;19.026;2023-07-13T06:14:11;97956.44;;;23.92;88.68
40920;BME280;26652;50.280;19.026;2023-07-13T06:16:12;97947.13;;;23.86;88.84
40920;BME280;26652;50.280;19.026;2023-07-13T06:18:13;97944.03;;;23.84;88.86
40920;BME280;26652;50.280;19.026;2023-07-13T06:20:14;97952.84;;;23.88;89.04
40920;BME280;26652;50.280;19.026;2023-07-13T06:22:15;97956.44;;;23.92;89.03
40920;BME280;26652;50.280;19.026;2023-07-13T06:24:15;97963.59;;;24.00;88.54
40920;BME280;26652;50.280;19.026;2023-07-13T06:26:18;97940.66;;;23.83;88.13
40920;BME280;26652;50.280;19.026;2023-07-13T06:28:20;97961.91;;;24.14;88.44
40920;BME280;26652;50.280;19.026;2023-07-13T06:30:20;97951.59;;;24.04;86.81
40920;BME280;26652;50.280;19.026;2023-07-13T06:32:21;97940.69;;;24.02;85.42
40920;BME280;26652;50.280;19.026;2023-07-13T06:34:21;97962.53;;;24.30;83.27
40920;BME280;26652;50.280;19.026;2023-07-13T06:36:22;97964.09;;;24.31;82.68
40920;BME280;26652;50.280;19.026;2023-07-13T06:38:23;97957.28;;;24.35;83.10
40920;BME280;26652;50.280;19.026;2023-07-13T06:40:24;97973.81;;;24.44;85.01
40920;BME280;26652;50.280;19.026;2023-07-13T06:42:24;97966.63;;;24.36;81.91
40920;BME280;26652;50.280;19.026;2023-07-13T06:44:25;97963.69;;;24.42;83.66
40920;BME280;26652;50.280;19.026;2023-07-13T06:46:28;97959.47;;;24.47;82.77
40920;BME280;26652;50.280;19.026;2023-07-13T06:48:29;97958.94;;;24.26;82.39
40920;BME280;26652;50.280;19.026;2023-07-13T06:50:30;97973.97;;;24.53;82.85
40920;BME280;26652;50.280;19.026;2023-07-13T06:52:31;97983.22;;;24.64;84.25
40920;BME280;26652;50.280;19.026;2023-07-13T06:54:32;97961.94;;;24.57;81.30
40920;BME280;26652;50.280;19.026;2023-07-13T06:56:33;97966.72;;;24.50;81.97
40920;BME280;26652;50.280;19.026;2023-07-13T06:58:34;97971.66;;;24.51;81.55
40920;BME280;26652;50.280;19.026;2023-07-13T07:00:35;97968.66;;;24.63;82.42
40920;BME280;26652;50.280;19.026;2023-07-13T07:02:35;97973.06;;;24.62;80.48
40920;BME280;26652;50.280;19.026;2023-07-13T07:04:36;97980.59;;;24.64;81.31
40920;BME280;26652;50.280;19.026;2023-07-13T07:06:37;97976.09;;;24.69;80.98
40920;BME280;26652;50.280;19.026;2023-07-13T07:08:38;97994.22;;;24.80;81.25
40920;BME280;26652;50.280;19.026;2023-07-13T07:10:40;97993.28;;;24.70;82.05
40920;BME280;26652;50.280;19.026;2023-07-13T07:12:41;98001.16;;;24.65;83.26
40920;BME280;26652;50.280;19.026;2023-07-13T07:14:42;97990.75;;;24.65;82.02
40920;BME280;26652;50.280;19.026;2023-07-13T07:16:42;98012.38;;;24.85;81.86
40920;BME280;26652;50.280;19.026;2023-07-13T07:18:43;98020.13;;;24.90;80.06
40920;BME280;26652;50.280;19.026;2023-07-13T07:20:44;98015.66;;;24.71;79.86
40920;BME280;26652;50.280;19.026;2023-07-13T07:22:45;98013.88;;;24.67;80.88
40920;BME280;26652;50.280;19.026;2023-07-13T07:24:45;98006.13;;;24.62;80.50
40920;BME280;26652;50.280;19.026;2023-07-13T07:26:46;98026.56;;;24.73;80.51
40920;BME280;26652;50.280;19.026;2023-07-13T07:28:47;98020.31;;;24.74;81.20
40920;BME280;26652;50.280;19.026;2023-07-13T07:30:48;98020.66;;;24.68;81.76
40920;BME280;26652;50.280;19.026;2023-07-13T07:32:52;98021.19;;;24.65;82.58
40920;BME280;26652;50.280;19.026;2023-07-13T07:34:53;98026.84;;;24.72;82.54
40920;BME280;26652;50.280;19.026;2023-07-13T07:36:54;98025.28;;;24.71;81.89
40920;BME280;26652;50.280;19.026;2023-07-13T07:38:55;98023.81;;;24.65;81.32
40920;BME280;26652;50.280;19.026;2023-07-13T07:40:56;98034.50;;;24.63;82.81
40920;BME280;26652;50.280;19.026;2023-07-13T07:42:57;98032.56;;;24.50;80.30
40920;BME280;26652;50.280;19.026;2023-07-13T07:44:58;98034.44;;;24.44;82.93
40920;BME280;26652;50.280;19.026;2023-07-13T07:46:59;98036.88;;;24.36;83.18
40920;BME280;26652;50.280;19.026;2023-07-13T07:48:59;98026.69;;;24.39;83.50
40920;BME280;26652;50.280;19.026;2023-07-13T07:51:00;98021.72;;;24.43;85.41
40920;BME280;26652;50.280;19.026;2023-07-13T07:53:01;98026.34;;;24.46;86.19
40920;BME280;26652;50.280;19.026;2023-07-13T07:55:06;98024.88;;;24.40;85.83
40920;BME280;26652;50.280;19.026;2023-07-13T07:57:07;98026.25;;;24.56;85.69
40920;BME280;26652;50.280;19.026;2023-07-13T07:59:09;98031.13;;;24.63;82.93
40920;BME280;26652;50.280;19.026;2023-07-13T08:01:10;98038.88;;;24.68;81.42
40920;BME280;26652;50.280;19.026;2023-07-13T08:03:10;98014.91;;;24.47;78.13
40920;BME280;26652;50.280;19.026;2023-07-13T08:05:12;98024.47;;;24.52;80.28
40920;BME280;26652;50.280;19.026;2023-07-13T08:07:12;98015.78;;;24.61;79.73
40920;BME280;26652;50.280;19.026;2023-07-13T08:09:13;98005.44;;;24.56;81.26
40920;BME280;26652;50.280;19.026;2023-07-13T08:11:14;98023.56;;;24.85;79.57
40920;BME280;26652;50.280;19.026;2023-07-13T08:13:15;98018.28;;;24.90;81.06
40920;BME280;26652;50.280;19.026;2023-07-13T08:15:16;98019.75;;;24.96;78.77
40920;BME280;26652;50.280;19.026;2023-07-13T08:17:17;98004.91;;;24.97;78.92
40920;BME280;26652;50.280;19.026;2023-07-13T08:19:18;98025.53;;;25.12;78.20
40920;BME280;26652;50.280;19.026;2023-07-13T08:21:19;98004.13;;;24.96;77.61
40920;BME280;26652;50.280;19.026;2023-07-13T08:23:20;98014.97;;;25.03;78.90
40920;BME280;26652;50.280;19.026;2023-07-13T08:25:21;97998.59;;;25.03;78.89
40920;BME280;26652;50.280;19.026;2023-07-13T08:27:24;98013.09;;;25.09;78.24
40920;BME280;26652;50.280;19.026;2023-07-13T08:29:26;98018.66;;;25.21;78.54
40920;BME280;26652;50.280;19.026;2023-07-13T08:31:27;97994.16;;;25.03;79.13
40920;BME280;26652;50.280;19.026;2023-07-13T08:33:28;98003.09;;;25.16;76.58
40920;BME280;26652;50.280;19.026;2023-07-13T08:35:28;98002.72;;;25.23;76.12
40920;BME280;26652;50.280;19.026;2023-07-13T08:37:29;98003.72;;;25.27;73.46
40920;BME280;26652;50.280;19.026;2023-07-13T08:39:31;98005.06;;;25.24;72.81
40920;BME280;26652;50.280;19.026;2023-07-13T08:41:32;98006.03;;;25.28;74.41
40920;BME280;26652;50.280;19.026;2023-07-13T08:43:36;98004.50;;;25.27;73.76
40920;BME280;26652;50.280;19.026;2023-07-13T08:45:47;98012.72;;;25.34;72.21
40920;BME280;26652;50.280;19.026;2023-07-13T08:47:53;98013.72;;;25.38;71.37
40920;BME280;26652;50.280;19.026;2023-07-13T08:49:54;98002.31;;;25.34;71.47
40920;BME280;26652;50.280;19.026;2023-07-13T08:52:02;98010.38;;;25.52;69.12
40920;BME280;26652;50.280;19.026;2023-07-13T08:54:14;98024.19;;;25.52;69.62
40920;BME280;26652;50.280;19.026;2023-07-13T08:56:20;98020.03;;;25.51;70.57
40920;BME280;26652;50.280;19.026;2023-07-13T08:58:22;98009.75;;;25.41;70.80
40920;BME280;26652;50.280;19.026;2023-07-13T09:00:38;98020.88;;;25.47;73.80
40920;BME280;26652;50.280;19.026;2023-07-13T09:02:57;98010.41;;;25.33;75.86
40920;BME280;26652;50.280;19.026;2023-07-13T09:05:10;98009.06;;;25.17;76.47
40920;BME280;26652;50.280;19.026;2023-07-13T09:07:58;98010.06;;;25.21;76.61
40920;BME280;26652;50.280;19.026;2023-07-13T09:10:19;98033.44;;;25.26;73.63
40920;BME280;26652;50.280;19.026;2023-07-13T09:14:42;98029.06;;;25.21;71.13
40920;BME280;26652;50.280;19.026;2023-07-13T09:16:44;98009.78;;;25.03;73.61
40920;BME280;26652;50.280;19.026;2023-07-13T09:18:49;98033.09;;;25.14;74.03
40920;BME280;26652;50.280;19.026;2023-07-13T09:21:17;98036.97;;;25.16;72.82
40920;BME280;26652;50.280;19.026;2023-07-13T09:23:23;98016.53;;;25.04;73.48
40920;BME280;26652;50.280;19.026;2023-07-13T09:25:35;98011.53;;;25.08;74.73
40920;BME280;26652;50.280;19.026;2023-07-13T09:27:40;98016.69;;;25.13;74.10
40920;BME280;26652;50.280;19.026;2023-07-13T09:29:48;98017.03;;;25.06;75.98
40920;BME280;26652;50.280;19.026;2023-07-13T09:31:54;98036.38;;;25.19;76.56
40920;BME280;26652;50.280;19.026;2023-07-13T09:33:56;98025.72;;;24.78;77.14
40920;BME280;26652;50.280;19.026;2023-07-13T09:35:57;98024.53;;;24.47;77.94
40920;BME280;26652;50.280;19.026;2023-07-13T09:38:21;98032.56;;;24.21;78.05
40920;BME280;26652;50.280;19.026;2023-07-13T09:40:44;98029.59;;;23.80;79.77
40920;BME280;26652;50.280;19.026;2023-07-13T09:42:49;98046.84;;;23.66;79.82
40920;BME280;26652;50.280;19.026;2023-07-13T09:44:54;98059.41;;;23.48;81.06
40920;BME280;26652;50.280;19.026;2023-07-13T09:46:55;98044.28;;;23.16;81.18
40920;BME280;26652;50.280;19.026;2023-07-13T09:48:55;98052.59;;;23.13;81.74
40920;BME280;26652;50.280;19.026;2023-07-13T09:51:06;98071.06;;;23.07;81.18
40920;BME280;26652;50.280;19.026;2023-07-13T09:53:12;98070.09;;;22.93;81.42
40920;BME280;26652;50.280;19.026;2023-07-13T09:55:26;98064.44;;;22.86;81.86
40920;BME280;26652;50.280;19.026;2023-07-13T09:57:27;98083.69;;;22.79;81.41
40920;BME280;26652;50.280;19.026;2023-07-13T09:59:31;98107.03;;;22.64;79.85
40920;BME280;26652;50.280;19.026;2023-07-13T10:01:34;98093.34;;;22.43;80.17
40920;BME280;26652;50.280;19.026;2023-07-13T10:03:36;98105.81;;;22.26;80.91
40920;BME280;26652;50.280;19.026;2023-07-13T10:05:44;98128.09;;;22.12;83.53
40920;BME280;26652;50.280;19.026;2023-07-13T10:07:45;98117.47;;;21.83;83.75
40920;BME280;26652;50.280;19.026;2023-07-13T10:09:46;98116.63;;;21.52;85.51
40920;BME280;26652;50.280;19.026;2023-07-13T10:11:50;98127.16;;;21.25;88.91
40920;BME280;26652;50.280;19.026;2023-07-13T10:13:57;98134.06;;;21.09;91.45
40920;BME280;26652;50.280;19.026;2023-07-13T10:15:59;98134.47;;;20.86;92.55
40920;BME280;26652;50.280;19.026;2023-07-13T10:18:00;98132.50;;;20.56;93.70
40920;BME280;26652;50.280;19.026;2023-07-13T10:20:04;98115.84;;;20.42;94.88
40920;BME280;26652;50.280;19.026;2023-07-13T10:24:33;98116.53;;;19.68;98.40
40920;BME280;26652;50.280;19.026;2023-07-13T10:26:40;98134.59;;;19.46;100.00
40920;BME280;26652;50.280;19.026;2023-07-13T10:28:51;98148.72;;;19.39;100.00
40920;BME280;26652;50.280;19.026;2023-07-13T10:30:54;98137.38;;;19.18;100.00
40920;BME280;26652;50.280;19.026;2023-07-13T10:33:02;98144.81;;;19.14;100.00
40920;BME280;26652;50.280;19.026;2023-07-13T10:35:03;98138.03;;;19.08;100.00
40920;BME280;26652;50.280;19.026;2023-07-13T10:37:05;98139.44;;;18.99;100.00
40920;BME280;26652;50.280;19.026;2023-07-13T10:39:15;98145.31;;;18.94;100.00
40920;BME280;26652;50.280;19.026;2023-07-13T10:41:20;98144.81;;;18.76;100.00